createdAt,value
2022-11-03T00:00:34.495Z,95.10
2022-11-03T00:03:01.010Z,95.78
2022-11-03T00:05:46.182Z,95.94
2022-11-03T00:10:43.909Z,96.84
2022-11-03T00:13:10.332Z,96.61
2022-11-03T00:15:36.726Z,97.67
2022-11-03T00:18:03.192Z,99.50
2022-11-03T00:20:29.629Z,99.22
2022-11-03T00:22:56.071Z,99.71
2022-11-03T00:25:22.538Z,99.72
2022-11-03T00:27:54.539Z,99.80
2022-11-03T00:30:20.997Z,99.66
2022-11-03T00:32:47.458Z,99.63
2022-11-03T00:35:13.960Z,100.00
2022-11-03T00:37:40.347Z,100.00
2022-11-03T00:40:07.431Z,100.00
2022-11-03T00:42:35.083Z,100.00
2022-11-03T00:45:01.503Z,100.00
2022-11-03T00:47:27.954Z,100.00
2022-11-03T00:49:54.410Z,100.00
2022-11-03T00:52:20.835Z,100.00
2022-11-03T00:54:51.333Z,100.00
2022-11-03T00:57:21.570Z,100.00
2022-11-03T00:59:48.115Z,100.00
2022-11-03T01:02:14.655Z,100.00
2022-11-03T01:04:59.684Z,100.00
2022-11-03T01:07:26.048Z,100.00
2022-11-03T01:09:52.477Z,100.00
2022-11-03T01:12:19.353Z,100.00
2022-11-03T01:14:51.505Z,100.00
2022-11-03T01:17:26.832Z,100.00
2022-11-03T01:19:54.114Z,100.00
2022-11-03T01:22:22.187Z,100.00
2022-11-03T01:24:48.758Z,100.00
2022-11-03T01:27:18.042Z,100.00
2022-11-03T01:29:44.771Z,100.00
2022-11-03T01:32:12.021Z,100.00
2022-11-03T01:34:39.348Z,100.00
2022-11-03T01:37:05.890Z,100.00
2022-11-03T01:39:32.542Z,100.00
2022-11-03T01:41:58.988Z,100.00
2022-11-03T01:44:50.098Z,100.00
2022-11-03T01:47:27.991Z,100.00
2022-11-03T01:50:03.419Z,100.00
2022-11-03T01:52:48.443Z,100.00
2022-11-03T01:55:22.449Z,100.00
2022-11-03T01:58:07.280Z,100.00
2022-11-03T02:00:35.001Z,100.00
2022-11-03T02:03:02.196Z,100.00
2022-11-03T02:05:30.023Z,100.00
2022-11-03T02:08:03.761Z,100.00
2022-11-03T02:10:30.234Z,100.00
2022-11-03T02:12:57.315Z,100.00
2022-11-03T02:15:24.363Z,100.00
2022-11-03T02:17:54.772Z,100.00
2022-11-03T02:20:24.069Z,100.00
2022-11-03T02:23:12.465Z,100.00
2022-11-03T02:25:53.228Z,100.00
2022-11-03T02:28:22.932Z,100.00
2022-11-03T02:31:16.792Z,100.00
2022-11-03T02:34:03.558Z,100.00
2022-11-03T02:36:42.955Z,100.00
2022-11-03T02:39:16.246Z,100.00
2022-11-03T02:41:44.057Z,100.00
2022-11-03T02:44:19.160Z,100.00
2022-11-03T02:46:50.400Z,100.00
2022-11-03T02:49:16.795Z,100.00
2022-11-03T02:51:43.201Z,100.00
2022-11-03T02:54:27.386Z,100.00
2022-11-03T02:56:59.694Z,100.00
2022-11-03T02:59:31.423Z,100.00
2022-11-03T03:02:11.677Z,100.00
2022-11-03T03:04:46.910Z,100.00
2022-11-03T03:07:18.716Z,100.00
2022-11-03T03:09:53.739Z,100.00
2022-11-03T03:12:22.101Z,100.00
2022-11-03T03:14:51.092Z,100.00
2022-11-03T03:17:25.871Z,100.00
2022-11-03T03:19:55.237Z,100.00
2022-11-03T03:22:36.316Z,100.00
2022-11-03T03:25:15.246Z,100.00
2022-11-03T03:27:47.607Z,100.00
2022-11-03T03:30:14.870Z,100.00
2022-11-03T03:32:48.930Z,100.00
2022-11-03T03:35:20.370Z,100.00
2022-11-03T03:37:53.623Z,100.00
2022-11-03T03:40:28.603Z,100.00
2022-11-03T03:42:56.748Z,100.00
2022-11-03T03:45:25.921Z,100.00
2022-11-03T03:47:57.340Z,100.00
2022-11-03T03:50:27.086Z,100.00
2022-11-03T03:53:09.385Z,100.00
2022-11-03T03:55:45.252Z,100.00
2022-11-03T03:58:13.723Z,100.00
2022-11-03T04:00:41.300Z,100.00
2022-11-03T04:03:17.746Z,100.00
2022-11-03T04:05:44.769Z,100.00
2022-11-03T04:08:15.998Z,100.00
2022-11-03T04:11:05.831Z,100.00
2022-11-03T04:13:51.579Z,100.00
2022-11-03T04:16:36.322Z,100.00
2022-11-03T04:19:21.232Z,100.00
2022-11-03T04:22:06.292Z,100.00
2022-11-03T04:24:32.684Z,100.00
2022-11-03T04:27:05.555Z,100.00
2022-11-03T04:29:31.949Z,100.00
2022-11-03T04:31:58.459Z,100.00
2022-11-03T04:34:24.951Z,100.00
2022-11-03T04:36:51.346Z,100.00
2022-11-03T04:39:20.093Z,100.00
2022-11-03T04:41:46.824Z,100.00
2022-11-03T04:44:16.788Z,100.00
2022-11-03T04:46:45.443Z,100.00
2022-11-03T04:49:22.682Z,100.00
2022-11-03T04:51:49.888Z,100.00
2022-11-03T04:54:19.646Z,100.00
2022-11-03T04:56:46.047Z,100.00
2022-11-03T04:59:14.219Z,100.00
2022-11-03T05:01:41.205Z,100.00
2022-11-03T05:04:18.360Z,100.00
2022-11-03T05:06:51.338Z,100.00
2022-11-03T05:09:23.046Z,100.00
2022-11-03T05:11:49.621Z,100.00
2022-11-03T05:14:20.474Z,100.00
2022-11-03T05:16:48.512Z,100.00
2022-11-03T05:19:19.792Z,100.00
2022-11-03T05:21:50.047Z,100.00
2022-11-03T05:24:21.051Z,100.00
2022-11-03T05:26:48.984Z,100.00
2022-11-03T05:29:25.562Z,100.00
2022-11-03T05:31:53.911Z,100.00
2022-11-03T05:34:32.545Z,100.00
2022-11-03T05:37:26.786Z,100.00
2022-11-03T05:39:59.477Z,100.00
2022-11-03T05:42:34.198Z,100.00
2022-11-03T05:45:03.232Z,100.00
2022-11-03T05:47:37.728Z,100.00
2022-11-03T05:50:28.516Z,100.00
2022-11-03T05:52:59.822Z,100.00
2022-11-03T05:55:29.680Z,100.00
2022-11-03T05:58:01.533Z,100.00
2022-11-03T06:00:31.765Z,100.00
2022-11-03T06:02:59.136Z,100.00
2022-11-03T06:05:26.950Z,100.00
2022-11-03T06:07:55.956Z,100.00
2022-11-03T06:10:41.341Z,100.00
2022-11-03T06:13:16.256Z,100.00
2022-11-03T06:15:45.887Z,100.00
2022-11-03T06:18:19.656Z,100.00
2022-11-03T06:20:52.125Z,100.00
2022-11-03T06:23:20.678Z,100.00
2022-11-03T06:25:48.846Z,100.00
2022-11-03T06:28:20.749Z,100.00
2022-11-03T06:30:47.624Z,100.00
2022-11-03T06:33:27.845Z,100.00
2022-11-03T06:35:59.061Z,100.00
2022-11-03T06:38:29.627Z,100.00
2022-11-03T06:40:57.303Z,100.00
2022-11-03T06:43:37.932Z,100.00
2022-11-03T06:46:14.770Z,100.00
2022-11-03T06:48:41.231Z,100.00
2022-11-03T06:51:25.562Z,100.00
2022-11-03T06:53:54.126Z,100.00
2022-11-03T06:56:23.105Z,100.00
2022-11-03T06:58:52.505Z,100.00
2022-11-03T07:01:25.881Z,100.00
2022-11-03T07:03:59.085Z,100.00
2022-11-03T07:06:30.066Z,100.00
2022-11-03T07:08:59.759Z,100.00
2022-11-03T07:11:28.561Z,100.00
2022-11-03T07:14:17.872Z,100.00
2022-11-03T07:16:48.682Z,100.00
2022-11-03T07:19:38.122Z,100.00
2022-11-03T07:22:19.806Z,100.00
2022-11-03T07:24:48.613Z,100.00
2022-11-03T07:27:23.769Z,100.00
2022-11-03T07:29:52.732Z,100.00
2022-11-03T07:32:21.214Z,100.00
2022-11-03T07:34:49.029Z,100.00
2022-11-03T07:37:23.798Z,100.00
2022-11-03T07:39:51.227Z,100.00
2022-11-03T07:42:19.894Z,100.00
2022-11-03T07:44:47.067Z,100.00
2022-11-03T07:47:18.873Z,100.00
2022-11-03T07:49:45.647Z,100.00
2022-11-03T07:52:16.110Z,100.00
2022-11-03T07:54:42.867Z,100.00
2022-11-03T07:57:26.224Z,100.00
2022-11-03T07:59:56.760Z,100.00
2022-11-03T08:02:52.357Z,100.00
2022-11-03T08:07:46.153Z,100.00
2022-11-03T08:10:13.719Z,100.00
2022-11-03T08:12:40.175Z,100.00
2022-11-03T08:15:07.279Z,100.00
2022-11-03T08:17:33.699Z,100.00
2022-11-03T08:20:00.248Z,100.00
2022-11-03T08:22:26.679Z,100.00
2022-11-03T08:24:53.315Z,100.00
2022-11-03T08:27:19.932Z,100.00
2022-11-03T08:29:46.367Z,100.00
2022-11-03T08:32:12.803Z,100.00
2022-11-03T08:34:39.273Z,100.00
2022-11-03T08:37:05.759Z,100.00
2022-11-03T08:39:32.220Z,100.00
2022-11-03T08:41:58.654Z,100.00
2022-11-03T08:44:25.075Z,100.00
2022-11-03T08:46:51.479Z,100.00
2022-11-03T08:49:17.929Z,100.00
2022-11-03T08:51:45.049Z,100.00
2022-11-03T08:54:11.738Z,100.00
2022-11-03T08:56:38.163Z,100.00
2022-11-03T08:59:04.577Z,100.00
2022-11-03T09:01:31.088Z,100.00
2022-11-03T09:03:57.656Z,100.00
2022-11-03T09:06:24.201Z,100.00
2022-11-03T09:11:37.048Z,100.00
2022-11-03T09:14:03.929Z,100.00
2022-11-03T09:16:30.360Z,100.00
2022-11-03T09:18:56.776Z,100.00
2022-11-03T09:21:23.365Z,100.00
2022-11-03T09:23:49.994Z,100.00
2022-11-03T09:26:16.541Z,100.00
2022-11-03T09:28:43.026Z,100.00
2022-11-03T09:31:09.500Z,100.00
2022-11-03T09:33:35.935Z,100.00
2022-11-03T09:36:02.704Z,100.00
2022-11-03T09:38:29.297Z,100.00
2022-11-03T09:40:55.858Z,100.00
2022-11-03T09:43:22.354Z,100.00
2022-11-03T09:45:48.965Z,100.00
2022-11-03T09:48:15.643Z,100.00
2022-11-03T09:50:42.919Z,100.00
2022-11-03T09:53:11.608Z,100.00
2022-11-03T09:55:39.875Z,100.00
2022-11-03T09:58:17.884Z,100.00
2022-11-03T10:00:45.499Z,100.00
2022-11-03T10:03:13.987Z,100.00
2022-11-03T10:05:42.176Z,100.00
2022-11-03T10:08:22.706Z,100.00
2022-11-03T10:10:50.778Z,100.00
2022-11-03T10:13:42.322Z,100.00
2022-11-03T10:16:11.691Z,100.00
2022-11-03T10:18:38.270Z,100.00
2022-11-03T10:21:17.764Z,100.00
2022-11-03T10:23:44.894Z,100.00
2022-11-03T10:26:13.785Z,100.00
2022-11-03T10:28:40.449Z,100.00
2022-11-03T10:31:19.514Z,100.00
2022-11-03T10:33:54.673Z,100.00
2022-11-03T10:36:32.145Z,100.00
2022-11-03T10:38:59.450Z,100.00
2022-11-03T10:41:28.595Z,100.00
2022-11-03T10:44:19.919Z,100.00
2022-11-03T10:47:34.623Z,100.00
2022-11-03T10:50:18.903Z,100.00
2022-11-03T10:52:45.351Z,99.86
2022-11-03T10:55:11.775Z,100.00
2022-11-03T10:57:38.448Z,98.74
2022-11-03T11:00:05.959Z,100.00
2022-11-03T11:02:33.125Z,100.00
2022-11-03T11:05:02.197Z,98.25
2022-11-03T11:07:38.858Z,98.07
2022-11-03T11:10:12.072Z,96.31
2022-11-03T11:12:39.144Z,95.74
2022-11-03T11:15:36.693Z,96.52
2022-11-03T11:18:03.217Z,96.37
2022-11-03T11:20:33.889Z,96.75
2022-11-03T11:23:28.621Z,96.12
2022-11-03T11:26:10.455Z,97.42
2022-11-03T11:28:58.359Z,97.07
2022-11-03T11:31:32.516Z,94.80
2022-11-03T11:34:18.134Z,95.30
2022-11-03T11:36:47.376Z,96.70
2022-11-03T11:39:22.858Z,97.37
2022-11-03T11:42:13.293Z,96.19
2022-11-03T11:44:39.849Z,97.42
2022-11-03T11:47:32.762Z,94.96
2022-11-03T11:50:05.560Z,94.31
2022-11-03T11:53:07.644Z,97.03
2022-11-03T11:55:40.486Z,95.10
2022-11-03T11:58:17.308Z,96.75
2022-11-03T12:01:11.747Z,95.32
2022-11-03T12:03:43.718Z,96.88
2022-11-03T12:06:13.231Z,97.28
2022-11-03T12:08:40.184Z,96.53
2022-11-03T12:11:08.154Z,96.44
2022-11-03T12:13:47.357Z,96.02
2022-11-03T12:16:30.102Z,96.30
2022-11-03T12:18:56.973Z,96.42
2022-11-03T12:21:53.873Z,97.29
2022-11-03T12:24:55.915Z,95.81
2022-11-03T12:27:25.476Z,97.95
2022-11-03T12:29:53.145Z,96.60
2022-11-03T12:32:33.112Z,94.41
2022-11-03T12:35:05.389Z,94.02
2022-11-03T12:37:31.968Z,95.60
2022-11-03T12:39:58.392Z,95.72
2022-11-03T12:42:25.419Z,95.13
2022-11-03T12:44:52.988Z,95.08
2022-11-03T12:47:20.199Z,94.90
2022-11-03T12:49:46.766Z,96.45
2022-11-03T12:52:13.192Z,96.18
2022-11-03T12:54:39.755Z,94.92
2022-11-03T12:57:06.240Z,95.04
2022-11-03T12:59:32.682Z,96.42
2022-11-03T13:01:59.276Z,96.19
2022-11-03T13:04:25.864Z,95.53
2022-11-03T13:06:52.303Z,95.66
2022-11-03T13:09:18.718Z,96.07
2022-11-03T13:12:03.903Z,96.51
2022-11-03T13:14:30.430Z,94.22
2022-11-03T13:16:56.821Z,94.18
2022-11-03T13:19:23.314Z,95.45
2022-11-03T13:21:49.763Z,94.63
2022-11-03T13:24:16.182Z,93.39
2022-11-03T13:26:42.601Z,94.10
2022-11-03T13:29:09.089Z,93.20
2022-11-03T13:31:35.743Z,92.39
2022-11-03T13:34:02.349Z,92.81
2022-11-03T13:36:28.824Z,93.78
2022-11-03T13:38:55.260Z,93.27
2022-11-03T13:41:21.738Z,93.18
2022-11-03T13:43:48.202Z,92.11
2022-11-03T13:46:14.608Z,93.25
2022-11-03T13:51:27.455Z,93.06
2022-11-03T13:59:27.903Z,94.88
2022-11-03T14:04:41.747Z,95.43
2022-11-03T14:07:08.656Z,94.42
2022-11-03T14:12:20.250Z,94.01
2022-11-03T14:14:46.658Z,94.64
2022-11-03T14:17:19.279Z,95.03
2022-11-03T14:19:51.824Z,94.74
2022-11-03T14:22:23.417Z,95.58
2022-11-03T14:24:50.903Z,96.00
2022-11-03T14:27:18.974Z,95.95
2022-11-03T14:29:49.550Z,95.91
2022-11-03T14:32:17.533Z,97.53
2022-11-03T14:34:44.440Z,97.08
2022-11-03T14:37:11.703Z,99.95
2022-11-03T14:39:38.799Z,100.00
2022-11-03T14:42:07.899Z,100.00
2022-11-03T14:44:36.619Z,100.00
2022-11-03T14:47:05.534Z,100.00
2022-11-03T14:49:34.162Z,100.00
2022-11-03T14:52:02.064Z,100.00
2022-11-03T14:54:30.464Z,100.00
2022-11-03T14:56:57.557Z,100.00
2022-11-03T14:59:24.095Z,100.00
2022-11-03T15:01:51.886Z,100.00
2022-11-03T15:04:18.570Z,100.00
2022-11-03T15:06:45.447Z,100.00
2022-11-03T15:09:14.757Z,100.00
2022-11-03T15:11:42.685Z,100.00
2022-11-03T15:14:09.935Z,100.00
2022-11-03T15:16:36.869Z,100.00
2022-11-03T15:19:06.795Z,100.00
2022-11-03T15:21:33.654Z,100.00
2022-11-03T15:26:46.699Z,100.00
2022-11-03T15:29:13.181Z,100.00
2022-11-03T15:31:44.507Z,100.00
2022-11-03T15:34:13.844Z,100.00
2022-11-03T15:36:40.254Z,100.00
2022-11-03T15:39:06.668Z,100.00
2022-11-03T15:41:33.129Z,100.00
2022-11-03T15:43:59.625Z,100.00
2022-11-03T15:46:26.182Z,100.00
2022-11-03T15:48:54.451Z,100.00
2022-11-03T15:51:21.064Z,100.00
2022-11-03T15:53:47.559Z,100.00
2022-11-03T15:56:13.978Z,100.00
2022-11-03T15:58:40.416Z,100.00
2022-11-03T16:01:07.025Z,100.00
2022-11-03T16:03:33.618Z,100.00
2022-11-03T16:06:00.061Z,100.00
2022-11-03T16:08:26.708Z,100.00
2022-11-03T16:10:57.571Z,100.00
2022-11-03T16:13:24.882Z,100.00
2022-11-03T16:15:51.745Z,100.00
2022-11-03T16:18:18.289Z,100.00
2022-11-03T16:20:44.862Z,100.00
2022-11-03T16:23:11.349Z,100.00
2022-11-03T16:25:38.073Z,100.00
2022-11-03T16:28:04.931Z,100.00
2022-11-03T16:30:31.699Z,100.00
2022-11-03T16:32:58.102Z,100.00
2022-11-03T16:35:25.747Z,100.00
2022-11-03T16:37:52.246Z,100.00
2022-11-03T16:40:19.892Z,100.00
2022-11-03T16:42:47.131Z,100.00
2022-11-03T16:45:19.122Z,100.00
2022-11-03T16:47:49.865Z,100.00
2022-11-03T16:50:17.391Z,100.00
2022-11-03T16:52:47.288Z,100.00
2022-11-03T16:55:15.409Z,100.00
2022-11-03T16:57:42.430Z,100.00
2022-11-03T17:00:12.808Z,100.00
2022-11-03T17:02:39.527Z,100.00
2022-11-03T17:05:07.005Z,100.00
2022-11-03T17:07:33.488Z,100.00
2022-11-03T17:09:59.939Z,100.00
2022-11-03T17:12:26.395Z,100.00
2022-11-03T17:14:55.747Z,100.00
2022-11-03T17:17:23.936Z,100.00
2022-11-03T17:19:51.063Z,100.00
2022-11-03T17:22:17.778Z,100.00
2022-11-03T17:24:44.238Z,100.00
2022-11-03T17:27:22.815Z,100.00
2022-11-03T17:29:55.880Z,100.00
2022-11-03T17:32:47.211Z,100.00
2022-11-03T17:35:21.235Z,100.00
2022-11-03T17:37:49.246Z,100.00
2022-11-03T17:40:26.018Z,100.00
2022-11-03T17:42:52.914Z,100.00
2022-11-03T17:45:21.530Z,100.00
2022-11-03T17:47:49.568Z,100.00
2022-11-03T17:50:21.186Z,100.00
2022-11-03T17:52:49.667Z,100.00
2022-11-03T17:55:18.015Z,100.00
2022-11-03T17:57:45.441Z,100.00
2022-11-03T18:00:17.080Z,100.00
2022-11-03T18:02:44.402Z,100.00
2022-11-03T18:05:22.569Z,100.00
2022-11-03T18:07:50.424Z,100.00
2022-11-03T18:10:16.935Z,100.00
2022-11-03T18:13:05.311Z,100.00
2022-11-03T18:15:35.359Z,100.00
2022-11-03T18:18:02.693Z,100.00
2022-11-03T18:20:30.380Z,100.00
2022-11-03T18:23:12.321Z,100.00
2022-11-03T18:25:38.731Z,100.00
2022-11-03T18:28:05.346Z,100.00
2022-11-03T18:30:31.978Z,100.00
2022-11-03T18:32:58.553Z,100.00
2022-11-03T18:35:28.306Z,100.00
2022-11-03T18:37:56.305Z,100.00
2022-11-03T18:40:22.806Z,100.00
2022-11-03T18:42:49.262Z,100.00
2022-11-03T18:45:17.715Z,100.00
2022-11-03T18:47:44.720Z,100.00
2022-11-03T18:50:17.350Z,100.00
2022-11-03T18:52:47.648Z,100.00
2022-11-03T18:55:16.046Z,100.00
2022-11-03T18:57:43.465Z,100.00
2022-11-03T19:00:19.755Z,100.00
2022-11-03T19:02:47.443Z,100.00
2022-11-03T19:05:15.465Z,100.00
2022-11-03T19:07:44.022Z,100.00
2022-11-03T19:10:14.731Z,100.00
2022-11-03T19:12:43.758Z,100.00
2022-11-03T19:15:19.418Z,100.00
2022-11-03T19:17:48.518Z,100.00
2022-11-03T19:20:15.906Z,100.00
2022-11-03T19:22:42.345Z,100.00
2022-11-03T19:25:09.103Z,100.00
2022-11-03T19:27:38.300Z,100.00
2022-11-03T19:30:05.638Z,100.00
2022-11-03T19:32:40.593Z,100.00
2022-11-03T19:35:16.107Z,100.00
2022-11-03T19:37:43.342Z,100.00
2022-11-03T19:40:18.751Z,100.00
2022-11-03T19:42:45.478Z,100.00
2022-11-03T19:45:17.397Z,100.00
2022-11-03T19:50:49.560Z,100.00
2022-11-03T19:53:22.368Z,100.00
2022-11-03T19:55:49.553Z,100.00
2022-11-03T19:58:24.754Z,100.00
2022-11-03T20:00:52.263Z,100.00
2022-11-03T20:03:19.588Z,100.00
2022-11-03T20:05:49.506Z,100.00
2022-11-03T20:08:21.365Z,100.00
2022-11-03T20:10:48.276Z,100.00
2022-11-03T20:13:23.368Z,100.00
2022-11-03T20:15:51.860Z,100.00
2022-11-03T20:18:20.103Z,100.00
2022-11-03T20:20:48.323Z,100.00
2022-11-03T20:23:31.318Z,100.00
2022-11-03T20:25:58.444Z,100.00
2022-11-03T20:28:28.319Z,100.00
2022-11-03T20:30:55.706Z,100.00
2022-11-03T20:33:24.249Z,100.00
2022-11-03T20:35:53.468Z,100.00
2022-11-03T20:38:21.073Z,100.00
2022-11-03T20:40:51.244Z,100.00
2022-11-03T20:43:43.022Z,100.00
2022-11-03T20:46:26.188Z,100.00
2022-11-03T20:48:55.197Z,100.00
2022-11-03T20:51:25.244Z,100.00
2022-11-03T20:53:52.615Z,100.00
2022-11-03T20:56:23.019Z,100.00
2022-11-03T20:58:49.860Z,100.00
2022-11-03T21:01:24.558Z,100.00
2022-11-03T21:03:59.369Z,100.00
2022-11-03T21:06:32.086Z,100.00
2022-11-03T21:08:58.875Z,100.00
2022-11-03T21:11:28.037Z,100.00
2022-11-03T21:13:56.341Z,100.00
2022-11-03T21:16:43.512Z,100.00
2022-11-03T21:19:43.432Z,100.00
2022-11-03T21:22:30.751Z,100.00
2022-11-03T21:24:59.233Z,100.00
2022-11-03T21:27:25.664Z,100.00
2022-11-03T21:29:59.263Z,100.00
2022-11-03T21:32:26.322Z,100.00
2022-11-03T21:34:52.771Z,100.00
2022-11-03T21:37:19.462Z,100.00
2022-11-03T21:39:46.076Z,100.00
2022-11-03T21:42:53.027Z,100.00
2022-11-03T21:45:20.275Z,100.00
2022-11-03T21:48:10.070Z,100.00
2022-11-03T21:50:38.389Z,100.00
2022-11-03T21:53:05.020Z,100.00
2022-11-03T21:55:31.539Z,100.00
2022-11-03T21:57:58.013Z,100.00
2022-11-03T22:00:24.439Z,100.00
2022-11-03T22:02:50.831Z,100.00
2022-11-03T22:05:17.317Z,100.00
2022-11-03T22:07:43.757Z,100.00
2022-11-03T22:10:10.247Z,100.00
2022-11-03T22:12:36.667Z,100.00
2022-11-03T22:15:22.561Z,100.00
2022-11-03T22:17:48.987Z,100.00
2022-11-03T22:20:34.502Z,100.00
2022-11-03T22:23:19.753Z,100.00
2022-11-03T22:26:07.574Z,100.00
2022-11-03T22:28:33.990Z,100.00
2022-11-03T22:31:22.307Z,100.00
2022-11-03T22:34:07.053Z,100.00
2022-11-03T22:36:33.475Z,100.00
2022-11-03T22:39:18.482Z,100.00
2022-11-03T22:42:06.359Z,100.00
2022-11-03T22:44:51.430Z,100.00
2022-11-03T22:47:18.860Z,100.00
2022-11-03T22:49:45.525Z,100.00
2022-11-03T22:52:12.036Z,100.00
2022-11-03T22:54:38.479Z,100.00
2022-11-03T22:57:04.893Z,100.00
2022-11-03T22:59:31.289Z,100.00
2022-11-03T23:01:57.806Z,100.00
2022-11-03T23:04:24.769Z,100.00
2022-11-03T23:06:51.337Z,100.00
2022-11-03T23:09:17.737Z,100.00
2022-11-03T23:11:44.141Z,100.00
2022-11-03T23:14:11.468Z,100.00
2022-11-03T23:16:42.910Z,100.00
2022-11-03T23:19:30.935Z,100.00
2022-11-03T23:21:57.457Z,100.00
2022-11-03T23:24:45.490Z,100.00
2022-11-03T23:27:12.990Z,100.00
2022-11-03T23:29:39.818Z,100.00
2022-11-03T23:32:06.515Z,100.00
2022-11-03T23:34:35.036Z,100.00
2022-11-03T23:37:02.158Z,100.00
2022-11-03T23:39:28.608Z,100.00
2022-11-03T23:41:54.983Z,100.00
2022-11-03T23:44:21.390Z,100.00
2022-11-03T23:47:06.286Z,100.00
2022-11-03T23:49:32.713Z,100.00
2022-11-03T23:51:59.472Z,100.00
2022-11-03T23:54:27.152Z,100.00
2022-11-03T23:57:12.210Z,100.00
2022-11-03T23:59:38.788Z,100.00
